createdAt,value
2023-03-30T00:00:27.061Z,98774.70
2023-03-30T00:03:24.670Z,98773.16
2023-03-30T00:06:22.105Z,98774.39
2023-03-30T00:09:14.595Z,98772.84
2023-03-30T00:12:06.867Z,98765.72
2023-03-30T00:14:59.103Z,98768.67
2023-03-30T00:17:54.939Z,98768.86
2023-03-30T00:20:49.237Z,98760.36
2023-03-30T00:23:42.160Z,98754.29
2023-03-30T00:26:24.654Z,98751.52
2023-03-30T00:29:16.994Z,98748.20
2023-03-30T00:32:09.316Z,98746.98
2023-03-30T00:35:01.770Z,98748.36
2023-03-30T00:37:38.976Z,98748.71
2023-03-30T00:40:32.533Z,98749.92
2023-03-30T00:43:06.796Z,98750.45
2023-03-30T00:45:43.919Z,98748.36
2023-03-30T00:48:40.816Z,98745.59
2023-03-30T00:51:34.013Z,98744.88
2023-03-30T00:54:26.110Z,98742.27
2023-03-30T00:57:03.812Z,98738.27
2023-03-30T00:59:41.622Z,98741.22
2023-03-30T01:02:35.687Z,98742.79
2023-03-30T01:05:29.021Z,98739.84
2023-03-30T01:08:24.030Z,98739.83
2023-03-30T01:11:16.189Z,98734.45
2023-03-30T01:14:10.118Z,98730.63
2023-03-30T01:17:13.641Z,98726.64
2023-03-30T01:20:38.939Z,98720.56
2023-03-30T01:24:05.556Z,98716.92
2023-03-30T01:27:01.095Z,98709.46
2023-03-30T01:30:14.555Z,98705.30
2023-03-30T01:33:42.380Z,98696.97
2023-03-30T01:36:55.577Z,98696.27
2023-03-30T01:39:47.262Z,98696.62
2023-03-30T01:42:46.273Z,98691.92
2023-03-30T01:45:44.929Z,98692.63
2023-03-30T01:48:26.149Z,98688.98
2023-03-30T01:51:25.015Z,98687.59
2023-03-30T01:54:23.857Z,98687.77
2023-03-30T01:57:19.468Z,98694.70
2023-03-30T02:00:13.932Z,98690.20
2023-03-30T02:03:12.453Z,98688.64
2023-03-30T02:06:11.592Z,98689.66
2023-03-30T02:09:03.772Z,98691.05
2023-03-30T02:11:56.740Z,98694.17
2023-03-30T02:14:50.336Z,98691.73
2023-03-30T02:17:46.207Z,98697.45
2023-03-30T02:20:39.074Z,98691.38
2023-03-30T02:23:36.704Z,98689.27
2023-03-30T02:26:29.452Z,98688.92
2023-03-30T02:29:23.450Z,98686.31
2023-03-30T02:32:20.450Z,98685.98
2023-03-30T02:35:31.131Z,98685.98
2023-03-30T02:38:46.179Z,98686.83
2023-03-30T02:41:49.884Z,98682.16
2023-03-30T02:44:39.604Z,98673.65
2023-03-30T02:47:38.834Z,98675.05
2023-03-30T02:50:41.276Z,98670.54
2023-03-30T02:53:40.726Z,98669.14
2023-03-30T02:56:38.708Z,98667.09
2023-03-30T02:59:36.936Z,98664.15
2023-03-30T03:02:35.712Z,98660.83
2023-03-30T03:05:28.612Z,98647.80
2023-03-30T03:08:13.646Z,98643.65
2023-03-30T03:11:07.176Z,98636.36
2023-03-30T03:13:49.802Z,98634.29
2023-03-30T03:16:42.232Z,98630.27
2023-03-30T03:19:34.506Z,98628.90
2023-03-30T03:22:26.577Z,98625.09
2023-03-30T03:25:18.544Z,98621.79
2023-03-30T03:28:10.636Z,98618.84
2023-03-30T03:31:03.604Z,98617.80
2023-03-30T03:33:55.804Z,98619.18
2023-03-30T03:36:52.302Z,98622.66
2023-03-30T03:39:44.257Z,98619.04
2023-03-30T03:42:36.229Z,98610.70
2023-03-30T03:45:28.289Z,98615.39
2023-03-30T03:48:23.063Z,98616.94
2023-03-30T03:51:15.325Z,98617.29
2023-03-30T03:54:08.380Z,98617.63
2023-03-30T03:57:01.973Z,98615.39
2023-03-30T03:59:43.294Z,98608.77
2023-03-30T04:02:35.422Z,98599.59
2023-03-30T04:05:28.281Z,98597.52
2023-03-30T04:08:20.453Z,98593.67
2023-03-30T04:11:09.362Z,98591.42
2023-03-30T04:14:01.581Z,98589.00
2023-03-30T04:16:57.795Z,98591.42
2023-03-30T04:19:53.838Z,98587.27
2023-03-30T04:22:46.127Z,98582.05
2023-03-30T04:25:39.811Z,98577.36
2023-03-30T04:28:29.640Z,98580.66
2023-03-30T04:31:22.790Z,98577.38
2023-03-30T04:34:14.948Z,98579.11
2023-03-30T04:37:07.579Z,98579.28
2023-03-30T04:40:00.106Z,98578.42
2023-03-30T04:42:52.145Z,98579.96
2023-03-30T04:45:24.063Z,98571.14
2023-03-30T04:48:16.125Z,98569.40
2023-03-30T04:51:08.337Z,98562.46
2023-03-30T04:54:00.328Z,98559.69
2023-03-30T04:56:52.354Z,98558.13
2023-03-30T04:59:45.183Z,98549.80
2023-03-30T05:02:37.624Z,98549.27
2023-03-30T05:05:29.744Z,98543.23
2023-03-30T05:08:11.459Z,98536.63
2023-03-30T05:10:52.056Z,98538.02
2023-03-30T05:13:44.028Z,98540.25
2023-03-30T05:16:36.775Z,98536.77
2023-03-30T05:19:29.433Z,98536.25
2023-03-30T05:22:21.592Z,98537.65
2023-03-30T05:25:14.075Z,98534.34
2023-03-30T05:27:48.187Z,98532.78
2023-03-30T05:30:40.404Z,98536.59
2023-03-30T05:33:32.481Z,98532.25
2023-03-30T05:36:24.486Z,98532.26
2023-03-30T05:39:07.542Z,98529.64
2023-03-30T05:41:59.563Z,98529.10
2023-03-30T05:44:41.400Z,98523.54
2023-03-30T05:47:25.119Z,98521.64
2023-03-30T05:50:17.376Z,98510.70
2023-03-30T05:52:52.527Z,98505.64
2023-03-30T05:55:46.777Z,98502.64
2023-03-30T05:58:38.912Z,98504.85
2023-03-30T06:01:30.882Z,98504.27
2023-03-30T06:04:23.110Z,98499.16
2023-03-30T06:07:15.307Z,98495.63
2023-03-30T06:10:09.111Z,98495.74
2023-03-30T06:13:01.560Z,98497.58
2023-03-30T06:15:38.984Z,98498.56
2023-03-30T06:18:31.444Z,98499.37
2023-03-30T06:21:23.407Z,98494.15
2023-03-30T06:24:15.643Z,98494.58
2023-03-30T06:27:07.771Z,98492.06
2023-03-30T06:29:43.558Z,98491.30
2023-03-30T06:32:35.580Z,98489.45
2023-03-30T06:35:27.585Z,98492.12
2023-03-30T06:38:09.616Z,98495.88
2023-03-30T06:41:11.761Z,98497.19
2023-03-30T06:44:03.725Z,98491.21
2023-03-30T06:46:51.918Z,98493.92
2023-03-30T06:49:43.937Z,98487.98
2023-03-30T06:52:16.543Z,98478.74
2023-03-30T06:55:09.574Z,98477.99
2023-03-30T06:58:02.043Z,98475.16
2023-03-30T07:00:54.439Z,98470.95
2023-03-30T07:03:46.400Z,98475.69
2023-03-30T07:06:38.459Z,98468.72
2023-03-30T07:09:30.691Z,98481.20
2023-03-30T07:12:05.452Z,98483.48
2023-03-30T07:14:57.566Z,98476.83
2023-03-30T07:17:32.653Z,98477.42
2023-03-30T07:20:24.735Z,98474.69
2023-03-30T07:23:16.915Z,98463.31
2023-03-30T07:25:59.801Z,98455.48
2023-03-30T07:28:51.807Z,98449.92
2023-03-30T07:31:27.502Z,98447.67
2023-03-30T07:34:20.016Z,98457.90
2023-03-30T07:37:11.960Z,98470.10
2023-03-30T07:40:07.752Z,98461.18
2023-03-30T07:43:00.138Z,98452.29
2023-03-30T07:45:52.137Z,98453.48
2023-03-30T07:48:44.341Z,98449.86
2023-03-30T07:51:27.836Z,98434.49
2023-03-30T07:54:20.290Z,98431.57
2023-03-30T07:57:12.653Z,98437.70
2023-03-30T08:00:08.164Z,98440.23
2023-03-30T08:02:49.252Z,98442.19
2023-03-30T08:05:41.279Z,98441.58
2023-03-30T08:08:16.292Z,98436.16
2023-03-30T08:11:11.120Z,98434.64
2023-03-30T08:14:03.260Z,98433.70
2023-03-30T08:16:55.487Z,98432.45
2023-03-30T08:19:30.463Z,98432.19
2023-03-30T08:22:13.671Z,98429.60
2023-03-30T08:25:06.429Z,98425.14
2023-03-30T08:27:58.446Z,98425.11
2023-03-30T08:30:40.827Z,98417.09
2023-03-30T08:33:13.538Z,98404.59
2023-03-30T08:35:51.413Z,98411.04
2023-03-30T08:38:46.223Z,98404.61
2023-03-30T08:41:53.545Z,98401.14
2023-03-30T08:44:49.120Z,98396.59
2023-03-30T08:47:32.949Z,98403.42
2023-03-30T08:50:19.338Z,98398.05
2023-03-30T08:52:53.947Z,98392.60
2023-03-30T08:55:34.007Z,98381.57
2023-03-30T08:58:17.535Z,98373.60
2023-03-30T09:01:00.371Z,98370.76
2023-03-30T09:04:13.750Z,98364.02
2023-03-30T09:06:54.856Z,98364.17
2023-03-30T09:09:49.487Z,98359.17
2023-03-30T09:12:34.379Z,98355.09
2023-03-30T09:15:21.191Z,98357.30
2023-03-30T09:18:23.329Z,98354.42
2023-03-30T09:21:16.465Z,98350.15
2023-03-30T09:24:20.252Z,98338.23
2023-03-30T09:27:22.114Z,98336.27
2023-03-30T09:30:02.491Z,98326.56
2023-03-30T09:32:41.935Z,98318.30
2023-03-30T09:35:18.893Z,98321.48
2023-03-30T09:37:58.374Z,98312.40
2023-03-30T09:40:47.259Z,98314.91
2023-03-30T09:43:33.567Z,98303.83
2023-03-30T09:46:16.891Z,98293.31
2023-03-30T09:49:18.801Z,98288.33
2023-03-30T09:52:03.692Z,98284.70
2023-03-30T09:54:43.677Z,98275.49
2023-03-30T09:57:28.348Z,98269.81
2023-03-30T10:00:27.670Z,98271.64
2023-03-30T10:03:24.863Z,98274.67
2023-03-30T10:06:21.648Z,98271.30
2023-03-30T10:09:09.134Z,98270.65
2023-03-30T10:11:58.349Z,98263.29
2023-03-30T10:14:56.811Z,98257.27
2023-03-30T10:17:51.533Z,98258.11
2023-03-30T10:20:44.017Z,98246.59
2023-03-30T10:23:20.327Z,98241.70
2023-03-30T10:26:19.190Z,98239.72
2023-03-30T10:29:18.257Z,98234.75
2023-03-30T10:31:53.931Z,98226.76
2023-03-30T10:34:39.038Z,98229.88
2023-03-30T10:37:17.509Z,98218.30
2023-03-30T10:40:18.554Z,98214.95
2023-03-30T10:43:16.318Z,98202.14
2023-03-30T10:45:51.602Z,98200.66
2023-03-30T10:48:45.808Z,98198.66
2023-03-30T10:51:48.736Z,98196.16
2023-03-30T10:54:48.188Z,98187.85
2023-03-30T10:57:51.449Z,98182.20
2023-03-30T11:00:41.190Z,98174.81
2023-03-30T11:03:34.041Z,98169.08
2023-03-30T11:06:14.111Z,98168.35
2023-03-30T11:08:49.749Z,98159.91
2023-03-30T11:11:32.566Z,98165.46
2023-03-30T11:14:15.660Z,98160.29
2023-03-30T11:16:54.052Z,98156.06
2023-03-30T11:19:40.909Z,98159.00
2023-03-30T11:22:25.453Z,98159.05
2023-03-30T11:25:02.399Z,98158.38
2023-03-30T11:27:51.818Z,98159.82
2023-03-30T11:30:46.798Z,98159.92
2023-03-30T11:33:27.610Z,98155.64
2023-03-30T11:36:18.691Z,98152.89
2023-03-30T11:39:04.059Z,98144.30
2023-03-30T11:41:41.764Z,98134.73
2023-03-30T11:44:16.631Z,98122.88
2023-03-30T11:47:05.788Z,98119.77
2023-03-30T11:49:48.010Z,98115.52
2023-03-30T11:52:32.029Z,98113.56
2023-03-30T11:55:38.460Z,98108.90
2023-03-30T11:58:21.818Z,98100.90
2023-03-30T12:01:06.284Z,98101.70
2023-03-30T12:03:45.451Z,98099.81
2023-03-30T12:06:31.129Z,98090.09
2023-03-30T12:09:22.017Z,98089.01
2023-03-30T12:12:04.639Z,98097.23
2023-03-30T12:15:22.421Z,98097.40
2023-03-30T12:18:05.347Z,98093.45
2023-03-30T12:20:45.078Z,98090.11
2023-03-30T12:23:28.886Z,98098.35
2023-03-30T12:26:19.336Z,98101.23
2023-03-30T12:32:19.979Z,98102.17
2023-03-30T12:35:00.980Z,98100.37
2023-03-30T12:37:50.087Z,98094.19
2023-03-30T12:40:47.400Z,98094.73
2023-03-30T12:43:55.994Z,98098.41
2023-03-30T12:46:42.966Z,98099.03
2023-03-30T12:49:47.254Z,98102.27
2023-03-30T12:52:51.160Z,98105.08
2023-03-30T12:55:39.754Z,98102.55
2023-03-30T12:58:27.610Z,98102.05
2023-03-30T13:01:39.191Z,98103.23
2023-03-30T13:04:15.066Z,98108.04
2023-03-30T13:06:57.944Z,98107.48
2023-03-30T13:09:59.349Z,98115.43
2023-03-30T13:12:42.414Z,98112.06
2023-03-30T13:15:41.377Z,98111.56
2023-03-30T13:18:35.368Z,98113.98
2023-03-30T13:21:20.081Z,98112.09
2023-03-30T13:24:41.101Z,98115.59
2023-03-30T13:27:27.773Z,98115.55
2023-03-30T13:30:20.297Z,98118.16
2023-03-30T13:33:04.808Z,98123.44
2023-03-30T13:35:54.567Z,98121.99
2023-03-30T13:38:53.284Z,98121.13
2023-03-30T13:41:34.112Z,98119.48
2023-03-30T13:44:29.968Z,98123.61
2023-03-30T13:47:45.230Z,98122.73
2023-03-30T13:50:27.347Z,98131.01
2023-03-30T13:53:20.113Z,98128.39
2023-03-30T13:55:54.911Z,98126.80
2023-03-30T13:58:34.413Z,98133.16
2023-03-30T14:01:12.769Z,98128.83
2023-03-30T14:03:52.630Z,98131.10
2023-03-30T14:06:26.721Z,98129.83
2023-03-30T14:09:13.614Z,98127.13
2023-03-30T14:12:07.720Z,98126.29
2023-03-30T14:14:50.362Z,98129.52
2023-03-30T14:17:27.941Z,98131.31
2023-03-30T14:20:17.766Z,98124.39
2023-03-30T14:23:00.598Z,98123.80
2023-03-30T14:25:59.544Z,98121.27
2023-03-30T14:28:54.612Z,98124.15
2023-03-30T14:32:00.528Z,98125.29
2023-03-30T14:34:39.178Z,98116.44
2023-03-30T14:37:33.069Z,98113.27
2023-03-30T14:40:17.368Z,98110.45
2023-03-30T14:42:49.345Z,98108.23
2023-03-30T14:45:42.113Z,98114.29
2023-03-30T14:48:24.789Z,98107.16
2023-03-30T14:51:28.330Z,98106.57
2023-03-30T14:54:22.616Z,98095.11
2023-03-30T14:57:00.241Z,98095.98
2023-03-30T14:59:48.234Z,98097.11
2023-03-30T15:02:26.672Z,98098.45
2023-03-30T15:05:22.060Z,98097.62
2023-03-30T15:08:05.365Z,98095.15
2023-03-30T15:10:44.724Z,98091.65
2023-03-30T15:50:12.773Z,98068.46
2023-03-30T15:52:47.991Z,98070.80
2023-03-30T15:55:27.540Z,98066.19
2023-03-30T15:58:25.785Z,98061.48
2023-03-30T16:01:18.600Z,98060.39
2023-03-30T16:04:14.192Z,98058.45
2023-03-30T16:06:52.490Z,98060.10
2023-03-30T16:09:44.568Z,98058.23
2023-03-30T16:12:25.253Z,98054.84
2023-03-30T16:15:19.275Z,98054.64
2023-03-30T16:18:13.105Z,98049.15
2023-03-30T16:20:55.060Z,98047.92
2023-03-30T16:23:32.641Z,98046.75
2023-03-30T16:26:24.667Z,98043.09
2023-03-30T16:29:22.633Z,98040.59
2023-03-30T16:32:14.682Z,98035.88
2023-03-30T16:34:52.380Z,98033.09
2023-03-30T16:37:44.394Z,98022.69
2023-03-30T16:40:42.730Z,98021.30
2023-03-30T16:43:27.251Z,98018.40
2023-03-30T16:46:22.323Z,98014.14
2023-03-30T16:49:18.549Z,98014.91
2023-03-30T16:51:54.524Z,98009.16
2023-03-30T16:54:33.180Z,98005.34
2023-03-30T16:57:16.686Z,98005.90
2023-03-30T17:00:23.572Z,97994.20
2023-03-30T17:03:15.846Z,97993.20
2023-03-30T17:05:51.354Z,97986.11
2023-03-30T17:08:25.958Z,97979.39
2023-03-30T17:11:01.683Z,97973.78
2023-03-30T17:13:47.370Z,97968.56
2023-03-30T17:16:39.858Z,97971.42
2023-03-30T17:19:32.095Z,97975.53
2023-03-30T17:22:24.239Z,97965.33
2023-03-30T17:25:17.536Z,97978.17
2023-03-30T17:27:53.350Z,97981.58
2023-03-30T17:30:30.553Z,97997.14
2023-03-30T17:33:13.624Z,98004.64
2023-03-30T17:36:13.400Z,98016.34
2023-03-30T17:39:04.633Z,98008.68
2023-03-30T17:41:41.746Z,98004.40
2023-03-30T17:44:33.871Z,97998.02
2023-03-30T17:47:09.740Z,98002.42
2023-03-30T17:50:02.721Z,98018.65
2023-03-30T17:52:43.891Z,98023.01
2023-03-30T17:55:20.537Z,98026.30
2023-03-30T17:58:02.219Z,98022.20
2023-03-30T18:00:35.230Z,98020.21
2023-03-30T18:03:07.149Z,98024.04
2023-03-30T18:06:00.719Z,98019.64
2023-03-30T18:08:42.953Z,98025.02
2023-03-30T18:11:21.029Z,98028.83
2023-03-30T18:13:55.990Z,98031.02
2023-03-30T18:16:50.090Z,98032.13
2023-03-30T18:19:42.919Z,98033.48
2023-03-30T18:22:35.132Z,98033.52
2023-03-30T18:25:19.031Z,98033.23
2023-03-30T18:28:20.623Z,98038.27
2023-03-30T18:31:02.165Z,98038.74
2023-03-30T18:33:54.361Z,98040.37
2023-03-30T18:36:30.381Z,98038.52
2023-03-30T18:39:22.711Z,98037.09
2023-03-30T18:42:00.199Z,98033.21
2023-03-30T18:44:53.508Z,98028.48
2023-03-30T18:47:28.466Z,98031.99
2023-03-30T18:50:23.948Z,98030.98
2023-03-30T18:52:58.777Z,98028.23
2023-03-30T18:55:32.350Z,98025.84
2023-03-30T18:58:12.962Z,98021.33
2023-03-30T19:00:45.533Z,98016.02
2023-03-30T19:03:38.192Z,98021.35
2023-03-30T19:06:18.401Z,98019.64
2023-03-30T19:09:11.703Z,98021.77
2023-03-30T19:11:46.752Z,98021.59
2023-03-30T19:14:27.697Z,98017.86
2023-03-30T19:17:15.832Z,98018.05
2023-03-30T19:20:09.376Z,98016.68
2023-03-30T19:22:51.435Z,98020.07
2023-03-30T19:25:44.162Z,98021.30
2023-03-30T19:28:25.193Z,98022.27
2023-03-30T19:31:17.521Z,98021.86
2023-03-30T19:33:56.117Z,98013.21
2023-03-30T19:36:28.106Z,98018.52
2023-03-30T19:39:02.653Z,98018.61
2023-03-30T19:41:34.973Z,98019.52
2023-03-30T19:44:10.645Z,98008.41
2023-03-30T19:46:43.286Z,98003.06
2023-03-30T19:49:35.606Z,97999.66
2023-03-30T19:52:10.988Z,97999.20
2023-03-30T19:55:03.437Z,97990.00
2023-03-30T19:57:36.295Z,97990.36
2023-03-30T20:00:15.890Z,97985.91
2023-03-30T20:02:49.961Z,97984.77
2023-03-30T20:05:28.058Z,97981.46
2023-03-30T20:08:24.835Z,97978.38
2023-03-30T20:11:22.290Z,97976.92
2023-03-30T20:13:55.518Z,97976.61
2023-03-30T20:16:49.118Z,97971.73
2023-03-30T20:19:29.920Z,97975.11
2023-03-30T20:22:05.630Z,97963.27
2023-03-30T20:24:58.495Z,97956.88
2023-03-30T20:27:33.780Z,97954.81
2023-03-30T20:30:26.016Z,97950.68
2023-03-30T20:33:08.765Z,97950.04
2023-03-30T20:36:01.245Z,97952.52
2023-03-30T20:38:55.288Z,97947.46
2023-03-30T20:41:38.057Z,97945.68
2023-03-30T20:44:33.389Z,97942.55
2023-03-30T20:47:30.816Z,97943.44
2023-03-30T20:50:07.607Z,97942.90
2023-03-30T20:52:42.599Z,97933.11
2023-03-30T20:55:15.341Z,97931.78
2023-03-30T20:57:47.390Z,97923.84
2023-03-30T21:00:39.785Z,97919.05
2023-03-30T21:03:32.056Z,97918.07
2023-03-30T21:06:08.861Z,97924.91
2023-03-30T21:08:41.631Z,97921.67
2023-03-30T21:11:16.500Z,97922.78
2023-03-30T21:14:09.781Z,97922.30
2023-03-30T21:16:44.771Z,97923.05
2023-03-30T21:19:22.697Z,97918.27
2023-03-30T21:21:54.742Z,97922.65
2023-03-30T21:24:27.558Z,97927.25
2023-03-30T21:26:59.755Z,97926.27
2023-03-30T21:29:52.114Z,97928.64
2023-03-30T21:32:33.021Z,97928.36
2023-03-30T21:35:08.496Z,97929.10
2023-03-30T21:38:01.553Z,97929.15
2023-03-30T21:40:43.654Z,97929.93
2023-03-30T21:43:37.480Z,97932.17
2023-03-30T21:46:29.865Z,97928.79
2023-03-30T21:49:04.955Z,97915.80
2023-03-30T21:51:57.161Z,97921.66
2023-03-30T21:54:32.066Z,97911.83
2023-03-30T21:57:24.707Z,97908.98
2023-03-30T22:00:18.241Z,97912.48
2023-03-30T22:02:50.319Z,97914.58
2023-03-30T22:05:22.765Z,97920.58
2023-03-30T22:08:17.497Z,97919.38
2023-03-30T22:10:55.886Z,97915.17
2023-03-30T22:13:33.296Z,97930.91
2023-03-30T22:16:07.683Z,97932.07
2023-03-30T22:18:45.566Z,97943.16
2023-03-30T22:21:37.962Z,97943.08
2023-03-30T22:24:30.323Z,97937.23
2023-03-30T22:27:05.354Z,97936.32
2023-03-30T22:29:46.583Z,97934.34
2023-03-30T22:32:27.128Z,97923.83
2023-03-30T22:34:59.228Z,97921.39
2023-03-30T22:37:34.281Z,97922.41
2023-03-30T22:40:13.635Z,97919.32
2023-03-30T22:42:48.579Z,97919.98
2023-03-30T22:45:29.319Z,97920.88
2023-03-30T22:48:01.771Z,97924.76
2023-03-30T22:50:53.924Z,97922.52
2023-03-30T22:53:45.830Z,97922.69
2023-03-30T22:56:27.275Z,97924.29
2023-03-30T22:59:19.369Z,97916.09
2023-03-30T23:02:00.928Z,97918.04
2023-03-30T23:04:36.271Z,97917.30
2023-03-30T23:07:11.665Z,97919.02
2023-03-30T23:09:50.687Z,97920.27
2023-03-30T23:12:43.157Z,97917.96
2023-03-30T23:15:35.173Z,97923.75
2023-03-30T23:18:16.650Z,97920.46
2023-03-30T23:20:48.767Z,97926.79
2023-03-30T23:23:23.766Z,97926.63
2023-03-30T23:26:02.671Z,97931.54
2023-03-30T23:28:46.261Z,97938.86
2023-03-30T23:31:38.434Z,97949.87
2023-03-30T23:34:11.795Z,97947.40
2023-03-30T23:36:46.126Z,97949.33
2023-03-30T23:39:26.979Z,97951.34
2023-03-30T23:42:19.128Z,97948.15
2023-03-30T23:44:51.057Z,97949.87
2023-03-30T23:47:25.571Z,97953.33
2023-03-30T23:50:17.927Z,97959.19
2023-03-30T23:53:09.849Z,97950.59
2023-03-30T23:56:05.767Z,97950.58
2023-03-30T23:58:41.758Z,97948.98
